MSKTO EGNH-XXXX

Flight info

Callsign MSKTO
Flight time N/A
Altitude 3000
Route EGNH
Aircraft H160/L-V/N

Departure

Time 2026-04-18 20:16
Airport Blackpool Airport (EGNH)

Arrival

Time N/A
Airport XXXX
Time Latitude Longitude Altitude Speed Heading
2026-04-18 20:01 53.77579 -3.03223 31 ft 0 kts 75°
2026-04-18 20:11 53.77580 -3.03218 46 ft 1 kts 74°
2026-04-18 20:11 53.77580 -3.03213 46 ft 1 kts 74°
2026-04-18 20:11 53.77584 -3.03189 45 ft 4 kts 88°
2026-04-18 20:11 53.77544 -3.03156 46 ft 9 kts 161°
2026-04-18 20:12 53.77498 -3.03129 46 ft 6 kts 162°
2026-04-18 20:12 53.77451 -3.03105 46 ft 8 kts 163°
2026-04-18 20:12 53.77384 -3.03072 46 ft 12 kts 163°
2026-04-18 20:12 53.77289 -3.03025 46 ft 16 kts 157°
2026-04-18 20:13 53.77214 -3.02986 46 ft 6 kts 163°
2026-04-18 20:13 53.77183 -3.02974 46 ft 3 kts 179°
2026-04-18 20:13 53.77169 -3.02980 46 ft 0 kts 218°
2026-04-18 20:13 53.77165 -3.02989 46 ft 3 kts 242°
2026-04-18 20:14 53.77166 -3.03054 46 ft 7 kts 275°
2026-04-18 20:14 53.77166 -3.03059 46 ft 0 kts 275°
2026-04-18 20:15 53.77165 -3.03073 54 ft 6 kts 276°
2026-04-18 20:15 53.77186 -3.03519 115 ft 80 kts 274°
2026-04-18 20:16 53.77234 -3.04590 223 ft 94 kts 275°
2026-04-18 20:16 53.77269 -3.05742 338 ft 97 kts 273°
2026-04-18 20:16 53.77277 -3.06615 930 ft 56 kts 266°
2026-04-18 20:16 53.77314 -3.07066 1280 ft 65 kts 287°
2026-04-18 20:17 53.77730 -3.07462 1745 ft 81 kts 352°
2026-04-18 20:17 53.78387 -3.07530 2027 ft 101 kts 353°
2026-04-18 20:17 53.79138 -3.07711 2234 ft 118 kts 349°
2026-04-18 20:17 53.79969 -3.08022 2450 ft 123 kts 346°
2026-04-18 20:18 53.80807 -3.08429 2635 ft 128 kts 342°
2026-04-18 20:18 53.81666 -3.08934 2812 ft 131 kts 339°
2026-04-18 20:18 53.81788 -3.09013 2835 ft 132 kts 339°
2026-04-18 20:18 53.82458 -3.09473 2856 ft 140 kts 337°
2026-04-18 20:19 53.83217 -3.10026 2717 ft 144 kts 338°
2026-04-18 20:19 53.83404 -3.10159 2652 ft 142 kts 339°
2026-04-18 20:20 53.83945 -3.10251 2139 ft 96 kts 353°
2026-04-18 20:20 53.84660 -3.10379 1827 ft 102 kts 359°
2026-04-18 20:20 53.85344 -3.10326 1449 ft 96 kts 10°
2026-04-18 20:21 53.86048 -3.10179 1776 ft 105 kts
2026-04-18 20:21 53.86788 -3.10087 2218 ft 103 kts
2026-04-18 20:21 53.87473 -3.09936 2179 ft 97 kts 11°
2026-04-18 20:21 53.88113 -3.09692 2169 ft 92 kts 15°
2026-04-18 20:22 53.88705 -3.09369 2166 ft 87 kts 21°
2026-04-18 20:22 53.89252 -3.08967 2161 ft 84 kts 27°
2026-04-18 20:22 53.89754 -3.08492 2159 ft 81 kts 32°
2026-04-18 20:22 53.90233 -3.07991 2360 ft 80 kts 22°
2026-04-18 20:23 53.90735 -3.07687 3157 ft 76 kts
2026-04-18 20:23 53.91394 -3.07613 3407 ft 121 kts 358°
2026-04-18 20:23 53.92388 -3.07822 3196 ft 150 kts 352°
2026-04-18 20:23 53.93336 -3.08097 3311 ft 129 kts 351°
2026-04-18 20:24 53.94184 -3.08331 3305 ft 119 kts 352°
2026-04-18 20:24 53.94983 -3.08547 3303 ft 114 kts 352°
2026-04-18 20:24 53.95750 -3.08752 3302 ft 110 kts 352°
2026-04-18 20:24 53.96498 -3.08948 3301 ft 108 kts 352°
2026-04-18 20:25 53.97232 -3.09134 3301 ft 106 kts 352°
2026-04-18 20:25 53.97956 -3.09310 3301 ft 104 kts 352°
2026-04-18 20:25 53.98672 -3.09476 3301 ft 103 kts 353°
2026-04-18 20:25 53.99370 -3.09629 3301 ft 102 kts 353°
2026-04-18 20:26 54.00069 -3.09768 3301 ft 100 kts 354°
2026-04-18 20:26 54.00768 -3.09894 3301 ft 99 kts 355°
2026-04-18 20:26 54.01454 -3.10004 3300 ft 99 kts 355°
2026-04-18 20:26 54.02120 -3.09927 3299 ft 99 kts 23°
2026-04-18 20:27 54.02746 -3.09456 3300 ft 99 kts 19°
2026-04-18 20:27 54.03399 -3.09115 3301 ft 98 kts 17°
2026-04-18 20:27 54.04050 -3.08787 3300 ft 97 kts 17°
2026-04-18 20:27 54.04695 -3.08455 3300 ft 97 kts 18°
2026-04-18 20:28 54.05335 -3.08113 3300 ft 96 kts 18°
2026-04-18 20:28 54.05975 -3.07770 3300 ft 96 kts 18°
2026-04-18 20:28 54.06611 -3.07428 3300 ft 96 kts 18°
2026-04-18 20:28 54.07246 -3.07087 3300 ft 96 kts 18°
2026-04-18 20:29 54.07881 -3.06747 3300 ft 96 kts 18°
2026-04-18 20:29 54.08514 -3.06406 3300 ft 95 kts 18°
2026-04-18 20:29 54.09147 -3.06065 3300 ft 95 kts 18°
2026-04-18 20:29 54.09780 -3.05724 3300 ft 95 kts 18°
2026-04-18 20:30 54.10412 -3.05384 3300 ft 95 kts 18°
2026-04-18 20:30 54.11046 -3.05043 3300 ft 95 kts 18°
2026-04-18 20:30 54.11670 -3.04707 3300 ft 95 kts 18°
2026-04-18 20:30 54.12303 -3.04366 3300 ft 95 kts 18°
2026-04-18 20:31 54.12937 -3.04025 3300 ft 95 kts 18°
2026-04-18 20:31 54.13569 -3.03684 3300 ft 95 kts 18°
2026-04-18 20:31 54.14203 -3.03343 3300 ft 95 kts 18°
2026-04-18 20:31 54.14836 -3.03002 3300 ft 95 kts 18°
2026-04-18 20:32 54.15471 -3.02660 3300 ft 95 kts 18°
2026-04-18 20:32 54.16105 -3.02319 3300 ft 95 kts 18°
2026-04-18 20:32 54.16738 -3.01979 3300 ft 95 kts 18°
2026-04-18 20:32 54.17372 -3.01637 3300 ft 95 kts 18°
2026-04-18 20:33 54.18005 -3.01296 3300 ft 95 kts 18°
2026-04-18 20:33 54.18636 -3.00955 3301 ft 95 kts 18°
2026-04-18 20:33 54.19268 -3.00614 3299 ft 95 kts 18°
2026-04-18 20:33 54.19900 -3.00273 3299 ft 95 kts 18°
2026-04-18 20:34 54.20530 -2.99933 3301 ft 95 kts 18°
2026-04-18 20:34 54.21161 -2.99590 3301 ft 95 kts 18°
2026-04-18 20:34 54.21795 -2.99282 3300 ft 95 kts 15°
2026-04-18 20:34 54.22429 -2.99022 3299 ft 95 kts 12°
2026-04-18 20:35 54.23245 -2.98812 3305 ft 146 kts
2026-04-18 20:35 54.24283 -2.98346 2186 ft 157 kts 26°
2026-04-18 20:35 54.25258 -2.97464 1639 ft 159 kts 30°
2026-04-18 20:35 54.26245 -2.96565 1045 ft 156 kts 30°
2026-04-18 20:36 54.27160 -2.95775 825 ft 148 kts 17°
2026-04-18 20:36 54.28098 -2.95572 850 ft 126 kts
2026-04-18 20:36 54.28986 -2.95441 816 ft 133 kts
2026-04-18 20:36 54.29956 -2.95400 768 ft 142 kts
2026-04-18 20:37 54.30934 -2.95194 704 ft 147 kts 15°
2026-04-18 20:37 54.31941 -2.94697 647 ft 146 kts 16°
2026-04-18 20:37 54.32915 -2.94304 589 ft 146 kts 10°
2026-04-18 20:37 54.33890 -2.94092 591 ft 138 kts
2026-04-18 20:38 54.34850 -2.93959 563 ft 136 kts
2026-04-18 20:38 54.35770 -2.93828 638 ft 130 kts 10°
2026-04-18 20:38 54.36656 -2.93556 680 ft 129 kts 11°
2026-04-18 20:38 54.36943 -2.93523 673 ft 130 kts 355°
2026-04-18 20:39 54.37388 -2.93699 665 ft 131 kts 344°
2026-04-18 20:39 54.38254 -2.94204 668 ft 132 kts 340°
2026-04-18 20:40 54.39105 -2.94753 737 ft 124 kts 342°
2026-04-18 20:40 54.39789 -2.94411 946 ft 118 kts 60°
2026-04-18 20:40 54.39458 -2.93329 960 ft 118 kts 165°
2026-04-18 20:40 54.38987 -2.93417 879 ft 121 kts 197°
2026-04-18 20:41 54.38909 -2.93453 858 ft 119 kts 198°
2026-04-18 20:41 54.38190 -2.93563 664 ft 86 kts 169°
2026-04-18 20:41 54.37983 -2.92920 378 ft 53 kts 63°
2026-04-18 20:41 54.38090 -2.92588 295 ft 8 kts 67°
2026-04-18 20:42 54.38081 -2.92679 615 ft 11 kts 60°
2026-04-18 20:42 54.38201 -2.92191 488 ft 66 kts 81°
2026-04-18 20:42 54.38354 -2.91795 459 ft 31 kts 295°
2026-04-18 20:42 54.38372 -2.91829 303 ft 14 kts 204°
2026-04-18 20:43 54.38411 -2.91884 361 ft 40 kts 265°
2026-04-18 20:43 54.38603 -2.92382 412 ft 59 kts 284°
2026-04-18 20:43 54.38319 -2.92657 429 ft 59 kts 141°
2026-04-18 20:43 54.38334 -2.92396 174 ft 23 kts
2026-04-18 20:44 54.38340 -2.92294 353 ft 38 kts 85°
2026-04-18 20:44 54.38387 -2.92018 164 ft 1 kts 57°
2026-04-18 20:45 54.38384 -2.92068 411 ft 12 kts 59°
2026-04-18 20:45 54.38611 -2.92578 789 ft 95 kts 294°
2026-04-18 20:45 54.39025 -2.93967 572 ft 153 kts 300°
2026-04-18 20:45 54.39836 -2.94933 796 ft 101 kts 54°
2026-04-18 20:46 54.39723 -2.94124 477 ft 81 kts 84°
2026-04-18 20:46 54.39845 -2.93690 195 ft 0 kts 60°
2026-04-18 20:46 54.39778 -2.93799 167 ft 8 kts 221°
2026-04-18 20:46 54.39676 -2.94035 246 ft 33 kts 143°
2026-04-18 20:47 54.39517 -2.94102 176 ft 5 kts 44°
2026-04-18 20:47 54.39644 -2.93943 214 ft 55 kts 43°
2026-04-18 20:47 54.39816 -2.93727 320 ft 12 kts 255°
2026-04-18 20:47 54.39700 -2.93978 153 ft 12 kts 98°